Mound, Minnesota
Current Conditions -  °F | °C
As of 7:53 AM on Sunday 25 Jan 2015 (Local Time) from KFCM Reporting Station
Clear Clear  
Wind Chill: 11°   Ceiling: Unl
Heat Index: 21°   Visibility: 10mi
Dew Point: 14°   Wind: 9mph
Humidity: 74%   Direction: 30°NNE
Pressure: 29.93"   Gusts: NA
Location:  44.93°N, 93.66°W
Report Text: KFCM 251353Z 03008KT 10SM CLR M06/M10 A2993 RMK AO2 SLP145 T10611100
Loading
Personal Weather Stations






























Interactive Weather Map New forecast layout! Learn more

10-Day Weather Forecast

Advertisements
Track Severe Weather on mobile